Terminal Aerodrome Forecast
Issued by NWS

Home | Current Version | Previous Version | Text Only | Print | Product List | Glossary On
Versions: 1 2 3 4 5 6 7 8 9 10 11 12 13 14 15 16 17 18 19 20
431
FTUS42 KTBW 071427 AAA
TAFRSW
TAF AMD
KRSW 071427Z 0714/0812 05007KT P6SM SCT012 OVC020
     FM071500 04007KT P6SM SCT015
      TEMPO 0715/0716 BKN015
     FM071900 30006KT P6SM SCT250
     FM080200 VRB03KT P6SM FEW015 SCT100
     FM080800 VRB03KT 5SM BR SCT010 BKN025=

USA.gov is the U.S. government's official web portal to all federal, state and local government web resources and services.